TimeCST,TemperatureF,Dew PointF,Humidity,Sea Level PressureIn,VisibilityMPH,Wind Direction,Wind SpeedMPH,Gust SpeedMPH,PrecipitationIn,Events,Conditions,WindDirDegrees,DateUTC
12:15 AM,76.3,69.3,79,29.83,7.0,SSE,12.7,16.1,N/A,,Overcast,160,2012-12-19 06:15:00
12:35 AM,76.1,69.3,79,29.82,5.0,SSE,13.8,21.9,N/A,,Haze,160,2012-12-19 06:35:00
12:55 AM,76.1,69.3,79,29.82,5.0,SSE,15.0,19.6,N/A,,Haze,160,2012-12-19 06:55:00
1:15 AM,76.1,69.4,80,29.81,7.0,SSE,15.0,19.6,N/A,,Overcast,160,2012-12-19 07:15:00
1:35 AM,76.1,69.4,80,29.81,5.0,SSE,13.8,23.0,N/A,,Haze,160,2012-12-19 07:35:00
1:55 AM,75.6,69.6,82,29.80,7.0,SSE,12.7,-,N/A,,Mostly Cloudy,150,2012-12-19 07:55:00
2:15 AM,75.4,69.4,82,29.80,7.0,SSE,13.8,20.7,N/A,,Mostly Cloudy,160,2012-12-19 08:15:00
2:35 AM,75.4,69.4,82,29.80,7.0,SSE,11.5,18.4,N/A,,Mostly Cloudy,150,2012-12-19 08:35:00
2:55 AM,75.7,69.6,81,29.80,5.0,SSE,10.4,19.6,N/A,,Haze,160,2012-12-19 08:55:00
3:15 AM,76.1,69.6,80,29.79,5.0,SSE,11.5,-,N/A,,Haze,160,2012-12-19 09:15:00
3:35 AM,76.6,69.4,78,29.78,5.0,SSE,13.8,21.9,N/A,,Haze,160,2012-12-19 09:35:00
3:55 AM,76.8,69.4,78,29.77,7.0,SSE,15.0,25.3,N/A,,Overcast,160,2012-12-19 09:55:00
4:15 AM,76.6,69.4,78,29.77,5.0,SSE,15.0,25.3,N/A,,Haze,160,2012-12-19 10:15:00
4:35 AM,76.6,69.4,78,29.77,5.0,SSE,12.7,20.7,N/A,,Haze,160,2012-12-19 10:35:00
4:55 AM,76.5,69.4,79,29.77,5.0,SSE,16.1,23.0,N/A,,Haze,160,2012-12-19 10:55:00
5:15 AM,77.0,69.3,77,29.76,5.0,SSE,16.1,23.0,N/A,,Haze,160,2012-12-19 11:15:00
5:35 AM,76.6,69.4,78,29.76,5.0,SSE,17.3,23.0,N/A,,Haze,160,2012-12-19 11:35:00
5:55 AM,76.5,69.4,79,29.76,7.0,SSE,19.6,25.3,N/A,,Mostly Cloudy,150,2012-12-19 11:55:00
6:15 AM,76.5,69.4,79,29.77,7.0,South,16.1,23.0,N/A,,Mostly Cloudy,170,2012-12-19 12:15:00
6:35 AM,76.6,69.4,78,29.77,5.0,SSE,15.0,25.3,N/A,,Haze,160,2012-12-19 12:35:00
6:55 AM,76.6,69.4,78,29.77,7.0,SSE,16.1,25.3,N/A,,Mostly Cloudy,160,2012-12-19 12:55:00
7:15 AM,76.8,69.6,78,29.77,7.0,SSE,19.6,26.5,N/A,,Overcast,160,2012-12-19 13:15:00
7:35 AM,76.5,69.3,78,29.77,5.0,SSE,15.0,23.0,N/A,,Haze,160,2012-12-19 13:35:00
7:55 AM,76.8,69.3,77,29.78,4.0,SSE,19.6,27.6,N/A,,Haze,160,2012-12-19 13:55:00
8:15 AM,77.2,69.1,76,29.79,5.0,SSE,16.1,21.9,N/A,,Haze,160,2012-12-19 14:15:00
8:35 AM,77.5,68.9,75,29.79,5.0,SSE,17.3,25.3,N/A,,Haze,160,2012-12-19 14:35:00
8:55 AM,78.1,68.9,73,29.80,5.0,South,16.1,25.3,N/A,,Haze,170,2012-12-19 14:55:00
9:15 AM,78.6,68.4,71,29.80,5.0,South,20.7,28.8,N/A,,Haze,170,2012-12-19 15:15:00
9:35 AM,80.1,68.5,68,29.80,4.0,South,19.6,28.8,N/A,,Haze,170,2012-12-19 15:35:00
9:55 AM,79.3,68.4,69,29.81,4.0,South,20.7,28.8,N/A,,Haze,180,2012-12-19 15:55:00
10:15 AM,81.3,67.8,63,29.80,5.0,South,20.7,33.4,N/A,,Haze,180,2012-12-19 16:15:00
10:35 AM,81.1,68.0,64,29.80,5.0,SSE,19.6,31.1,N/A,,Haze,160,2012-12-19 16:35:00
10:55 AM,81.7,68.2,63,29.80,5.0,South,20.7,28.8,N/A,,Haze,180,2012-12-19 16:55:00
11:15 AM,83.7,67.1,57,29.78,5.0,South,26.5,31.1,N/A,,Haze,170,2012-12-19 17:15:00
11:35 AM,84.0,67.1,57,29.78,5.0,South,23.0,32.2,N/A,,Haze,180,2012-12-19 17:35:00
11:55 AM,85.3,66.9,54,29.77,5.0,South,23.0,31.1,N/A,,Haze,190,2012-12-19 17:55:00
12:15 PM,85.6,66.4,52,29.75,5.0,South,20.7,31.1,N/A,,Haze,170,2012-12-19 18:15:00
12:35 PM,87.1,66.4,50,29.74,5.0,South,25.3,32.2,N/A,,Haze,180,2012-12-19 18:35:00
12:55 PM,87.8,66.2,49,29.72,5.0,South,17.3,27.6,N/A,,Haze,190,2012-12-19 18:55:00
1:15 PM,87.1,66.2,50,29.71,5.0,South,20.7,28.8,N/A,,Haze,170,2012-12-19 19:15:00
1:55 PM,87.8,66.4,49,29.69,5.0,South,20.7,26.5,N/A,,Haze,170,2012-12-19 19:55:00
2:15 PM,88.9,66.2,47,29.68,5.0,SSE,16.1,25.3,N/A,,Haze,160,2012-12-19 20:15:00
2:35 PM,88.3,66.0,47,29.68,4.0,SSE,18.4,24.2,N/A,,Haze,160,2012-12-19 20:35:00
2:55 PM,89.1,66.4,47,29.67,3.0,South,16.1,24.2,N/A,,Haze,180,2012-12-19 20:55:00
3:15 PM,88.7,67.1,49,29.67,5.0,South,17.3,23.0,N/A,,Haze,170,2012-12-19 21:15:00
3:35 PM,87.6,67.8,52,29.67,5.0,SSE,15.0,24.2,N/A,,Haze,150,2012-12-19 21:35:00
3:55 PM,86.9,67.8,53,29.67,5.0,SSE,16.1,26.5,N/A,,Haze,150,2012-12-19 21:55:00
4:15 PM,86.5,67.6,53,29.67,5.0,SSE,18.4,21.9,N/A,,Haze,160,2012-12-19 22:15:00
4:35 PM,85.1,68.0,56,29.67,5.0,SSE,11.5,24.2,N/A,,Haze,150,2012-12-19 22:35:00
4:55 PM,84.0,67.8,58,29.67,5.0,SSE,16.1,20.7,N/A,,Haze,160,2012-12-19 22:55:00
5:15 PM,83.3,67.5,59,29.67,5.0,SSE,19.6,24.2,N/A,,Haze,150,2012-12-19 23:15:00
5:35 PM,82.0,67.5,61,29.67,7.0,SSE,18.4,23.0,N/A,,Clear,150,2012-12-19 23:35:00
5:55 PM,80.6,68.0,65,29.68,5.0,SSE,12.7,-,N/A,,Haze,150,2012-12-19 23:55:00
6:15 PM,79.9,68.5,68,29.69,7.0,SSE,13.8,20.7,N/A,,Clear,160,2012-12-20 00:15:00
6:35 PM,79.2,68.9,71,29.70,7.0,SSE,11.5,-,N/A,,Clear,160,2012-12-20 00:35:00
6:55 PM,78.6,68.9,72,29.71,7.0,SSE,10.4,-,N/A,,Clear,160,2012-12-20 00:55:00
7:15 PM,77.9,68.9,74,29.72,7.0,South,13.8,18.4,N/A,,Clear,170,2012-12-20 01:15:00
7:35 PM,77.5,68.9,75,29.72,7.0,SSE,12.7,18.4,N/A,,Clear,160,2012-12-20 01:35:00
7:55 PM,77.0,69.1,76,29.73,7.0,South,10.4,-,N/A,,Clear,170,2012-12-20 01:55:00
8:15 PM,76.6,69.3,78,29.74,7.0,SSE,8.1,-,N/A,,Clear,160,2012-12-20 02:15:00
8:35 PM,76.1,69.4,80,29.75,7.0,SSE,10.4,17.3,N/A,,Clear,160,2012-12-20 02:35:00
8:55 PM,76.1,69.8,81,29.75,7.0,SSE,11.5,-,N/A,,Clear,160,2012-12-20 02:55:00
9:15 PM,75.7,69.8,82,29.76,5.0,South,10.4,-,N/A,,Haze,170,2012-12-20 03:15:00
9:35 PM,75.2,69.8,83,29.76,5.0,South,9.2,-,N/A,,Haze,170,2012-12-20 03:35:00
9:55 PM,75.2,69.8,83,29.77,5.0,South,9.2,16.1,N/A,,Haze,180,2012-12-20 03:55:00
10:15 PM,74.7,69.6,84,29.77,5.0,South,9.2,-,N/A,,Haze,180,2012-12-20 04:15:00
10:35 PM,74.5,69.6,85,29.78,5.0,South,9.2,-,N/A,,Clear,170,2012-12-20 04:35:00
10:55 PM,74.5,69.8,85,29.78,5.0,South,9.2,-,N/A,,Haze,180,2012-12-20 04:55:00
11:15 PM,74.5,69.8,85,29.79,4.0,South,9.2,-,N/A,,Haze,190,2012-12-20 05:15:00
11:35 PM,74.5,69.8,85,29.79,5.0,South,8.1,-,N/A,,Clear,180,2012-12-20 05:35:00
11:55 PM,74.3,69.8,86,29.79,4.0,South,8.1,-,N/A,,Clear,170,2012-12-20 05:55:00